createdAt,value
2019-02-27T00:06:25.228Z,100624.12
2019-02-27T00:16:30.414Z,100612.79
2019-02-27T00:26:35.614Z,100609.13
2019-02-27T00:36:44.871Z,100621.80
2019-02-27T00:46:47.593Z,100625.52
2019-02-27T00:56:52.923Z,100623.37
2019-02-27T01:06:58.293Z,100618.41
2019-02-27T01:17:03.573Z,100602.28
2019-02-27T01:27:09.069Z,100603.42
2019-02-27T01:37:13.878Z,100586.20
2019-02-27T01:47:20.055Z,100581.94
2019-02-27T01:57:25.041Z,100575.16
2019-02-27T02:07:30.352Z,100566.90
2019-02-27T02:18:01.198Z,100556.06
2019-02-27T02:28:30.752Z,100566.96
2019-02-27T02:38:50.906Z,100563.84
2019-02-27T02:49:06.216Z,100554.30
2019-02-27T02:59:31.075Z,100549.11
2019-02-27T03:09:58.710Z,100545.57
2019-02-27T03:20:34.322Z,100529.30
2019-02-27T03:30:45.480Z,100537.63
2019-02-27T03:41:08.739Z,100551.70
2019-02-27T03:52:00.093Z,100548.38
2019-02-27T04:02:08.752Z,100539.14
2019-02-27T04:12:16.639Z,100537.09
2019-02-27T04:22:21.125Z,100540.59
2019-02-27T04:32:26.309Z,100538.91
2019-02-27T04:42:31.605Z,100533.17
2019-02-27T04:52:36.847Z,100535.34
2019-02-27T05:02:42.075Z,100541.38
2019-02-27T05:12:48.176Z,100556.58
2019-02-27T05:22:54.136Z,100559.14
2019-02-27T05:33:02.056Z,100549.73
2019-02-27T05:43:05.756Z,100556.42
2019-02-27T05:53:11.533Z,100546.25
2019-02-27T06:03:18.323Z,100550.42
2019-02-27T06:13:23.336Z,100571.42
2019-02-27T06:23:28.478Z,100582.41
2019-02-27T06:33:33.796Z,100595.94
2019-02-27T06:43:38.892Z,100589.88
2019-02-27T06:53:43.953Z,100576.78
2019-02-27T07:03:49.031Z,100551.64
2019-02-27T07:13:54.346Z,100546.56
2019-02-27T07:23:59.546Z,100549.64
2019-02-27T07:34:05.196Z,100554.22
2019-02-27T07:44:10.299Z,100540.80
2019-02-27T07:54:15.407Z,100507.19
2019-02-27T08:04:22.866Z,100521.63
2019-02-27T08:14:27.232Z,100520.94
2019-02-27T08:24:33.686Z,100520.13
2019-02-27T08:34:38.885Z,100493.52
2019-02-27T08:44:45.751Z,100491.91
2019-02-27T08:54:50.888Z,100481.45
2019-02-27T09:04:56.032Z,100478.73
2019-02-27T09:15:01.139Z,100467.05
2019-02-27T09:25:08.310Z,100471.91
2019-02-27T09:35:13.431Z,100468.83
2019-02-27T09:45:30.201Z,100462.12
2019-02-27T09:55:35.291Z,100456.36
2019-02-27T10:05:40.779Z,100435.02
2019-02-27T10:15:45.916Z,100424.69
2019-02-27T10:25:51.036Z,100422.66
2019-02-27T10:35:56.273Z,100408.97
2019-02-27T10:46:01.358Z,100392.87
2019-02-27T10:56:06.144Z,100377.73
2019-02-27T11:06:11.007Z,100362.99
2019-02-27T11:16:20.840Z,100341.29
2019-02-27T11:26:23.285Z,100322.12
2019-02-27T11:36:28.378Z,100309.02
2019-02-27T11:46:35.112Z,100282.88
2019-02-27T11:56:40.328Z,100256.97
2019-02-27T12:06:45.540Z,100239.69
2019-02-27T12:16:51.775Z,100229.89
2019-02-27T12:26:57.663Z,100198.20
2019-02-27T12:37:02.889Z,100187.25
2019-02-27T12:47:08.080Z,100174.17
2019-02-27T12:57:17.379Z,100161.19
2019-02-27T13:07:19.888Z,100147.48
2019-02-27T13:17:25.199Z,100130.58
2019-02-27T13:27:31.331Z,100093.87
2019-02-27T13:37:36.512Z,100082.68
2019-02-27T13:47:41.809Z,100051.24
2019-02-27T13:57:47.008Z,100031.62
2019-02-27T14:07:57.294Z,100026.62
2019-02-27T14:17:58.714Z,100008.30
2019-02-27T14:28:04.247Z,99990.00
2019-02-27T14:38:10.558Z,99973.20
2019-02-27T14:48:21.428Z,99956.46
2019-02-27T14:58:25.670Z,99939.25
2019-02-27T15:08:30.753Z,99931.91
2019-02-27T15:18:35.880Z,99928.23
2019-02-27T15:28:41.698Z,99917.53
2019-02-27T15:38:47.021Z,99912.16
2019-02-27T15:48:52.128Z,99895.30
2019-02-27T15:58:59.387Z,99875.62
2019-02-27T16:09:04.182Z,99863.84
2019-02-27T16:19:11.582Z,99835.89
2019-02-27T16:29:16.757Z,99831.56
2019-02-27T16:39:21.879Z,99808.78
2019-02-27T16:49:27.293Z,99805.17
2019-02-27T16:59:32.667Z,99799.81
2019-02-27T17:09:38.151Z,99771.81
2019-02-27T17:19:43.581Z,99764.25
2019-02-27T17:29:48.751Z,99756.97
2019-02-27T17:39:54.198Z,99756.26
2019-02-27T17:49:59.717Z,99749.52
2019-02-27T18:00:08.784Z,99734.78
2019-02-27T18:10:15.382Z,99704.19
2019-02-27T18:20:24.474Z,99684.58
2019-02-27T18:30:28.272Z,99659.48
2019-02-27T18:40:33.774Z,99649.60
2019-02-27T18:50:39.256Z,99638.83
2019-02-27T19:00:44.874Z,99627.14
2019-02-27T19:10:53.573Z,99602.91
2019-02-27T19:21:00.255Z,99596.91
2019-02-27T19:31:06.229Z,99580.38
2019-02-27T19:41:11.584Z,99556.53
2019-02-27T19:51:20.070Z,99536.97
2019-02-27T20:12:23.036Z,99509.78
2019-02-27T20:22:28.647Z,99491.56
2019-02-27T20:32:34.157Z,99466.92
2019-02-27T20:42:39.756Z,99447.91
2019-02-27T20:52:46.556Z,99438.33
2019-02-27T21:02:53.433Z,99410.03
2019-02-27T21:12:59.657Z,99402.48
2019-02-27T21:23:05.942Z,99373.38
2019-02-27T21:33:11.996Z,99366.80
2019-02-27T21:43:17.500Z,99341.62
2019-02-27T21:53:22.782Z,99326.09
2019-02-27T22:03:27.960Z,99313.91
2019-02-27T22:13:33.387Z,99302.74
2019-02-27T22:23:39.523Z,99296.64
2019-02-27T22:33:44.589Z,99271.83
2019-02-27T22:43:49.691Z,99239.95
2019-02-27T22:53:54.716Z,99235.66
2019-02-27T23:03:59.901Z,99227.12
2019-02-27T23:14:05.239Z,99223.62
2019-02-27T23:24:10.990Z,99223.80
2019-02-27T23:34:16.007Z,99221.56
2019-02-27T23:44:22.059Z,99203.26
2019-02-27T23:54:27.198Z,99191.92
